Herbert J Plaisance — WDE6917 — position and weather

sailwx.info

Track history (hours):
 
Tides and Currents Weather Stations Pressure Air Temp Water Temp Dewpoint Dewpoint Depression Visibility Wind Speed Wind Dir Waves Ship Positions

Herbert J Plaisance

Owner: S & B Marine LLC, Harvey, LA. More information available from US FCC via Universal Licensing System and Coast Guard Vessel Documentation Center.

Last reported at 2015-May-03 13:32 UTC. Time now 2015-May-06 20:32 UTC.
Position N 30°13' W 091°19'.

Length 20 m; draft 3 m.

Type: Towing. MMSI: 367386576.

Date/timePositionNaut miles runAvg speedWind from/ knotsBaromVisibWave heightAir tempDewpointWater temp
2015-May-03 13:32N 30°13' W 091°19'0 0.0
2015-May-03 12:30N 30°13' W 091°19'0 0.0
2015-May-03 10:17N 30°13' W 091°19'0 0.0
2015-May-03 09:32N 30°13' W 091°19'4 0.9
2015-May-03 05:21N 30°17' W 091°19'8 4.0
2015-May-03 03:28N 30°24' W 091°19'3 3.6
2015-May-03 02:33N 30°26' W 091°16'3 3.0
2015-May-03 01:31N 30°26' W 091°12'1 0.5
2015-May-03 00:33N 30°25' W 091°12'1 1.1
2015-May-02 23:33N 30°24' W 091°12'0 0.0
2015-May-02 22:33N 30°24' W 091°12'0 0.0
2015-May-02 21:33N 30°24' W 091°12'0 0.0
2015-May-02 20:33N 30°24' W 091°12'0 0.0
2015-May-02 19:33N 30°24' W 091°12'0 0.0
2015-May-02 18:33N 30°24' W 091°12'0 0.0
2015-May-02 17:33N 30°24' W 091°12'4 3.6
2015-May-02 16:34N 30°28' W 091°12'5 4.7
2015-May-02 15:33N 30°32' W 091°15'7 7.1
2015-May-02 14:33N 30°39' W 091°18'12 8.2
2015-May-02 13:06N 30°45' W 091°30'  
2015-Apr-24 13:10N 30°45' W 091°23'3 4.3
2015-Apr-24 12:33N 30°43' W 091°21'4 4.5
2015-Apr-24 11:33N 30°39' W 091°19'4 3.8
2015-Apr-24 10:33N 30°35' W 091°19'2 2.1
2015-Apr-24 09:33N 30°34' W 091°17'3 2.9
2015-Apr-24 08:33N 30°31' W 091°16'2 2.1
2015-Apr-24 07:33N 30°31' W 091°14'2 2.1
2015-Apr-24 06:33N 30°30' W 091°12'3 2.7
2015-Apr-24 05:33N 30°27' W 091°12'3 3.1
2015-Apr-24 04:33N 30°24' W 091°12'0 0.0
2015-Apr-24 03:33N 30°24' W 091°12'0 0.0
2015-Apr-24 02:33N 30°24' W 091°12'2 2.0
2015-Apr-24 01:33N 30°26' W 091°13'1 0.5
2015-Apr-24 00:33N 30°26' W 091°13'1 0.6
2015-Apr-23 23:33N 30°26' W 091°14'0 0.4
2015-Apr-23 22:33N 30°27' W 091°14'0 0.0
2015-Apr-23 21:33N 30°27' W 091°14'1 0.8
2015-Apr-23 20:17N 30°26' W 091°15'0 0.4
2015-Apr-23 19:33N 30°26' W 091°15'0 0.2
2015-Apr-23 18:33N 30°26' W 091°15'0 0.0
2015-Apr-23 17:33N 30°26' W 091°15'0 0.1
2015-Apr-23 16:33N 30°26' W 091°15'0 0.1
2015-Apr-23 15:33N 30°26' W 091°15'0 0.0
2015-Apr-23 14:33N 30°26' W 091°15'0 0.3
2015-Apr-23 13:33N 30°26' W 091°15'  
Track history (hours):
 
Tides and Currents Weather Stations Pressure Air Temp Water Temp Dewpoint Dewpoint Depression Visibility Wind Speed Wind Dir Waves Ship Positions

Herbert J Plaisance

Owner: S & B Marine LLC, Harvey, LA. More information available from US FCC via Universal Licensing System and Coast Guard Vessel Documentation Center.

Last reported at 2015-May-03 13:32 UTC. Time now 2015-May-06 20:32 UTC.
Position N 30°13' W 091°19'.

Length 20 m; draft 3 m.

Type: Towing. MMSI: 367386576.

Date/timePositionNaut miles runAvg speedWind from/ knotsBaromVisibWave heightAir tempDewpointWater temp
2015-May-03 13:32N 30°13' W 091°19'0 0.0
2015-May-03 12:30N 30°13' W 091°19'0 0.0
2015-May-03 10:17N 30°13' W 091°19'0 0.0
2015-May-03 09:32N 30°13' W 091°19'4 0.9
2015-May-03 05:21N 30°17' W 091°19'8 4.0
2015-May-03 03:28N 30°24' W 091°19'3 3.6
2015-May-03 02:33N 30°26' W 091°16'3 3.0
2015-May-03 01:31N 30°26' W 091°12'1 0.5
2015-May-03 00:33N 30°25' W 091°12'1 1.1
2015-May-02 23:33N 30°24' W 091°12'0 0.0
2015-May-02 22:33N 30°24' W 091°12'0 0.0
2015-May-02 21:33N 30°24' W 091°12'0 0.0
2015-May-02 20:33N 30°24' W 091°12'0 0.0
2015-May-02 19:33N 30°24' W 091°12'0 0.0
2015-May-02 18:33N 30°24' W 091°12'0 0.0
2015-May-02 17:33N 30°24' W 091°12'4 3.6
2015-May-02 16:34N 30°28' W 091°12'5 4.7
2015-May-02 15:33N 30°32' W 091°15'7 7.1
2015-May-02 14:33N 30°39' W 091°18'12 8.2
2015-May-02 13:06N 30°45' W 091°30'  
2015-Apr-24 13:10N 30°45' W 091°23'3 4.3
2015-Apr-24 12:33N 30°43' W 091°21'4 4.5
2015-Apr-24 11:33N 30°39' W 091°19'4 3.8
2015-Apr-24 10:33N 30°35' W 091°19'2 2.1
2015-Apr-24 09:33N 30°34' W 091°17'3 2.9
2015-Apr-24 08:33N 30°31' W 091°16'2 2.1
2015-Apr-24 07:33N 30°31' W 091°14'2 2.1
2015-Apr-24 06:33N 30°30' W 091°12'3 2.7
2015-Apr-24 05:33N 30°27' W 091°12'3 3.1
2015-Apr-24 04:33N 30°24' W 091°12'0 0.0
2015-Apr-24 03:33N 30°24' W 091°12'0 0.0
2015-Apr-24 02:33N 30°24' W 091°12'2 2.0
2015-Apr-24 01:33N 30°26' W 091°13'1 0.5
2015-Apr-24 00:33N 30°26' W 091°13'1 0.6
2015-Apr-23 23:33N 30°26' W 091°14'0 0.4
2015-Apr-23 22:33N 30°27' W 091°14'0 0.0
2015-Apr-23 21:33N 30°27' W 091°14'1 0.8
2015-Apr-23 20:17N 30°26' W 091°15'0 0.4
2015-Apr-23 19:33N 30°26' W 091°15'0 0.2
2015-Apr-23 18:33N 30°26' W 091°15'0 0.0
2015-Apr-23 17:33N 30°26' W 091°15'0 0.1
2015-Apr-23 16:33N 30°26' W 091°15'0 0.1
2015-Apr-23 15:33N 30°26' W 091°15'0 0.0
2015-Apr-23 14:33N 30°26' W 091°15'0 0.3
2015-Apr-23 13:33N 30°26' W 091°15'  

Dump ship's entire track history